Time;durP1;ratioP1;P1;durP2;ratioP2;P2;SDS_P1;SDS_P2;PMS_P1;PMS_P2;Temp;Humidity;BMP_temperature;BMP_pressure;BME280_temperature;BME280_humidity;BME280_pressure;Samples;Min_cycle;Max_cycle;Signal;HPM_P1;HPM_P2
2022/10/14 00:00:00;;;;;;;7.32;2.67;;;;;;;;;;6173201;23;20186;-43
2022/10/14 00:02:26;;;;;;;6.13;2.72;;;;;;;;;;6194562;23;20017;-41
2022/10/14 00:04:53;;;;;;;4.32;1.83;;;;;;;;;;6176083;23;20020;-44
2022/10/14 00:07:20;;;;;;;4.17;1.90;;;;;;;;;;6184791;23;20016;-42
2022/10/14 00:09:47;;;;;;;3.10;1.30;;;;;;;;;;6180416;23;20043;-43
2022/10/14 00:12:14;;;;;;;4.13;2.15;;;;;;;;;;6181436;23;20284;-41
2022/10/14 00:14:41;;;;;;;5.47;2.30;;;;;;;;;;6177186;23;20017;-41
2022/10/14 00:17:08;;;;;;;5.70;3.13;;;;;;;;;;6181195;23;20020;-43
2022/10/14 00:19:34;;;;;;;3.73;1.50;;;;;;;;;;6182604;23;20469;-44
2022/10/14 00:22:01;;;;;;;6.15;2.13;;;;;;;;;;6165451;23;20132;-44
2022/10/14 00:24:27;;;;;;;2.95;0.98;;;;;;;;;;6173776;23;20276;-41
2022/10/14 00:26:54;;;;;;;7.63;1.98;;;;;;;;;;6193538;23;20016;-42
2022/10/14 00:29:22;;;;;;;4.43;1.63;;;;;;;;;;6172161;23;20027;-44
2022/10/14 00:31:50;;;;;;;4.83;2.23;;;;;;;;;;6188964;23;20444;-42
2022/10/14 00:34:20;;;;;;;4.68;2.03;;;;;;;;;;6189213;23;20294;-42
2022/10/14 00:36:47;;;;;;;5.10;2.60;;;;;;;;;;6185962;23;20515;-41
2022/10/14 00:39:14;;;;;;;3.90;2.08;;;;;;;;;;6178828;23;20738;-42
2022/10/14 00:41:40;;;;;;;6.07;3.47;;;;;;;;;;6192518;23;20024;-42
2022/10/14 00:44:09;;;;;;;5.87;2.47;;;;;;;;;;6180281;23;20025;-42
2022/10/14 00:46:40;;;;;;;4.40;1.70;;;;;;;;;;6167552;23;20640;-42
2022/10/14 00:49:08;;;;;;;4.10;1.52;;;;;;;;;;6188034;23;20480;-42
2022/10/14 00:51:36;;;;;;;7.40;3.20;;;;;;;;;;6176112;23;20012;-42
2022/10/14 00:54:03;;;;;;;4.90;2.08;;;;;;;;;;6193578;23;20016;-42
2022/10/14 00:56:30;;;;;;;6.90;3.17;;;;;;;;;;6178304;23;20466;-44
2022/10/14 00:58:57;;;;;;;4.40;2.10;;;;;;;;;;6189967;23;20440;-44
2022/10/14 01:01:24;;;;;;;4.72;2.17;;;;;;;;;;6154334;23;20461;-42
2022/10/14 01:03:51;;;;;;;4.82;1.92;;;;;;;;;;6186613;23;20016;-42
2022/10/14 01:06:22;;;;;;;4.68;2.35;;;;;;;;;;6179963;23;20713;-41
2022/10/14 01:08:51;;;;;;;6.27;1.87;;;;;;;;;;6164654;23;20069;-45
2022/10/14 01:11:23;;;;;;;5.68;1.80;;;;;;;;;;6163020;23;20012;-43
2022/10/14 01:13:55;;;;;;;4.28;2.25;;;;;;;;;;6189416;23;20031;-41
2022/10/14 01:16:25;;;;;;;4.07;1.98;;;;;;;;;;6183506;23;20726;-44
2022/10/14 01:19:02;;;;;;;4.97;1.45;;;;;;;;;;6171744;23;20451;-45
2022/10/14 01:21:32;;;;;;;4.83;2.23;;;;;;;;;;6196785;23;20016;-41
2022/10/14 01:24:19;;;;;;;4.47;2.05;;;;;;;;;;6168135;23;20012;-44
2022/10/14 01:26:56;;;;;;;5.72;2.25;;;;;;;;;;6184012;23;20054;-43
2022/10/14 01:29:32;;;;;;;5.10;2.13;;;;;;;;;;6185218;23;20017;-41
2022/10/14 01:32:02;;;;;;;6.40;2.83;;;;;;;;;;6174744;23;20079;-42
2022/10/14 01:34:34;;;;;;;4.00;1.93;;;;;;;;;;6189435;23;20013;-41
2022/10/14 01:37:02;;;;;;;3.95;1.90;;;;;;;;;;6180491;23;20572;-43
2022/10/14 01:39:31;;;;;;;3.95;1.83;;;;;;;;;;6189938;23;20019;-44
2022/10/14 01:42:01;;;;;;;5.45;2.72;;;;;;;;;;6174491;23;20020;-45
2022/10/14 01:44:28;;;;;;;6.53;2.15;;;;;;;;;;6184925;23;20738;-43
2022/10/14 01:46:55;;;;;;;3.93;1.23;;;;;;;;;;6178312;23;20330;-41
2022/10/14 01:49:26;;;;;;;3.50;1.52;;;;;;;;;;6187232;23;20013;-46
2022/10/14 01:51:56;;;;;;;4.72;1.55;;;;;;;;;;6168977;23;20333;-42
2022/10/14 01:54:25;;;;;;;5.35;2.05;;;;;;;;;;6180673;23;20122;-44
2022/10/14 01:56:53;;;;;;;4.00;1.85;;;;;;;;;;6189827;23;20071;-42
2022/10/14 01:59:20;;;;;;;4.90;2.10;;;;;;;;;;6154596;23;20652;-42
2022/10/14 02:01:47;;;;;;;4.25;1.70;;;;;;;;;;6186421;23;20043;-43
2022/10/14 02:04:14;;;;;;;4.32;1.83;;;;;;;;;;6189721;23;20023;-45
2022/10/14 02:06:43;;;;;;;6.43;2.38;;;;;;;;;;6179896;23;20091;-43
2022/10/14 02:09:12;;;;;;;5.00;2.55;;;;;;;;;;6184965;23;20019;-43
2022/10/14 02:11:41;;;;;;;7.13;2.57;;;;;;;;;;6182293;23;20511;-44
2022/10/14 02:14:15;;;;;;;5.03;3.15;;;;;;;;;;6187079;23;20016;-46
2022/10/14 02:16:46;;;;;;;3.75;1.60;;;;;;;;;;6184377;23;20451;-41
2022/10/14 02:19:19;;;;;;;3.20;1.33;;;;;;;;;;6182367;23;20506;-45
2022/10/14 02:21:48;;;;;;;4.32;2.17;;;;;;;;;;6187040;23;20617;-42
2022/10/14 02:24:19;;;;;;;7.67;1.60;;;;;;;;;;6174009;23;20021;-42
2022/10/14 02:26:47;;;;;;;4.57;1.95;;;;;;;;;;6191278;23;20019;-41
2022/10/14 02:29:13;;;;;;;6.45;2.95;;;;;;;;;;6183424;23;20460;-43
2022/10/14 02:31:41;;;;;;;7.93;2.35;;;;;;;;;;6153773;23;20016;-43
2022/10/14 02:34:10;;;;;;;4.45;1.45;;;;;;;;;;6180726;23;20399;-44
2022/10/14 02:36:37;;;;;;;4.73;1.77;;;;;;;;;;6181341;23;20517;-43
2022/10/14 02:39:06;;;;;;;3.50;1.52;;;;;;;;;;6182211;23;20024;-43
2022/10/14 02:41:36;;;;;;;7.15;1.63;;;;;;;;;;6177489;23;20020;-45
2022/10/14 02:44:04;;;;;;;4.35;1.95;;;;;;;;;;6185831;23;20017;-44
2022/10/14 02:46:32;;;;;;;4.50;2.08;;;;;;;;;;6136973;23;20040;-45
2022/10/14 02:48:58;;;;;;;5.30;2.03;;;;;;;;;;6122229;23;20024;-43
2022/10/14 02:51:24;;;;;;;3.65;1.33;;;;;;;;;;6158016;23;20017;-43
2022/10/14 02:53:51;;;;;;;4.10;1.98;;;;;;;;;;6132009;23;20028;-43
2022/10/14 02:56:19;;;;;;;3.70;1.27;;;;;;;;;;6157689;23;20044;-47
2022/10/14 02:58:46;;;;;;;4.80;1.73;;;;;;;;;;6150485;23;20067;-42
2022/10/14 03:01:12;;;;;;;4.37;2.07;;;;;;;;;;6160077;23;20092;-44
2022/10/14 03:03:39;;;;;;;3.78;1.45;;;;;;;;;;6139673;23;20518;-44
2022/10/14 03:06:06;;;;;;;4.35;1.90;;;;;;;;;;6159335;23;20013;-44
2022/10/14 03:08:32;;;;;;;5.85;2.45;;;;;;;;;;6148788;23;20551;-44
2022/10/14 03:10:59;;;;;;;5.32;1.92;;;;;;;;;;6155564;23;20490;-42
2022/10/14 03:13:27;;;;;;;3.13;1.00;;;;;;;;;;6150046;23;20589;-44
2022/10/14 03:15:54;;;;;;;3.58;1.98;;;;;;;;;;6161796;23;20047;-42
2022/10/14 03:18:21;;;;;;;3.72;1.58;;;;;;;;;;6152878;23;20013;-45
2022/10/14 03:20:47;;;;;;;3.95;1.55;;;;;;;;;;6152718;23;20112;-44
2022/10/14 03:23:14;;;;;;;3.45;0.95;;;;;;;;;;6158446;23;20442;-43
2022/10/14 03:25:43;;;;;;;3.80;2.00;;;;;;;;;;6152377;23;20444;-42
2022/10/14 03:28:09;;;;;;;3.55;1.10;;;;;;;;;;6150711;23;20020;-43
2022/10/14 03:30:37;;;;;;;3.78;1.45;;;;;;;;;;6155482;23;20075;-42
2022/10/14 03:33:04;;;;;;;4.13;0.98;;;;;;;;;;6143319;23;20380;-42
2022/10/14 03:35:30;;;;;;;3.42;1.10;;;;;;;;;;6158581;23;20443;-44
2022/10/14 03:37:58;;;;;;;4.50;1.53;;;;;;;;;;6150899;23;20017;-43
2022/10/14 03:40:25;;;;;;;3.53;1.13;;;;;;;;;;6160166;23;20402;-43
2022/10/14 03:42:51;;;;;;;2.38;0.90;;;;;;;;;;6148150;23;20017;-42
2022/10/14 03:45:18;;;;;;;5.38;1.60;;;;;;;;;;6171849;23;20024;-44
2022/10/14 03:47:46;;;;;;;3.70;1.48;;;;;;;;;;6182290;23;20035;-45
2022/10/14 03:50:12;;;;;;;4.47;1.87;;;;;;;;;;6190874;23;20328;-44
2022/10/14 03:52:40;;;;;;;2.63;0.85;;;;;;;;;;6174703;23;20474;-41
2022/10/14 03:55:07;;;;;;;3.90;1.02;;;;;;;;;;6188183;23;20164;-44
2022/10/14 03:57:34;;;;;;;3.38;1.67;;;;;;;;;;6191057;23;20027;-43
2022/10/14 04:00:03;;;;;;;3.72;1.02;;;;;;;;;;6180447;23;20021;-41
2022/10/14 04:02:30;;;;;;;4.10;1.77;;;;;;;;;;6193255;23;20517;-42
2022/10/14 04:04:58;;;;;;;3.47;1.45;;;;;;;;;;6174461;23;20055;-42
2022/10/14 04:07:24;;;;;;;2.50;0.90;;;;;;;;;;6188631;23;20261;-43
2022/10/14 04:09:51;;;;;;;2.50;0.93;;;;;;;;;;6182056;23;20043;-43
2022/10/14 04:12:17;;;;;;;2.95;1.13;;;;;;;;;;6185582;23;20024;-44
2022/10/14 04:14:44;;;;;;;2.87;1.07;;;;;;;;;;6182913;23;20320;-42
2022/10/14 04:17:11;;;;;;;3.00;0.85;;;;;;;;;;6182577;23;20013;-43
2022/10/14 04:19:37;;;;;;;2.75;0.75;;;;;;;;;;6183186;23;20269;-42
2022/10/14 04:22:05;;;;;;;3.10;0.77;;;;;;;;;;6188189;23;20013;-42
2022/10/14 04:24:32;;;;;;;1.92;0.65;;;;;;;;;;6181532;23;20502;-43
2022/10/14 04:26:58;;;;;;;2.53;0.60;;;;;;;;;;6184679;23;20043;-42
2022/10/14 04:29:25;;;;;;;2.95;0.90;;;;;;;;;;6187941;23;20016;-42
2022/10/14 04:31:53;;;;;;;2.65;0.65;;;;;;;;;;6189737;23;20016;-43
2022/10/14 04:34:19;;;;;;;2.97;0.85;;;;;;;;;;6179760;23;20099;-42
2022/10/14 04:36:46;;;;;;;2.22;0.70;;;;;;;;;;6188635;23;20475;-42
2022/10/14 04:39:14;;;;;;;2.73;1.07;;;;;;;;;;6179416;23;20067;-42
2022/10/14 04:41:41;;;;;;;2.42;0.82;;;;;;;;;;6194299;23;20017;-44
2022/10/14 04:44:07;;;;;;;3.85;1.35;;;;;;;;;;6174816;23;20022;-43
2022/10/14 04:46:34;;;;;;;3.63;1.23;;;;;;;;;;6168974;23;20032;-42
2022/10/14 04:49:00;;;;;;;4.28;0.57;;;;;;;;;;6176771;23;20016;-43
2022/10/14 04:51:27;;;;;;;1.87;0.40;;;;;;;;;;6164467;23;20019;-45
2022/10/14 04:53:54;;;;;;;2.28;0.70;;;;;;;;;;6177953;23;20494;-50
2022/10/14 04:56:22;;;;;;;3.83;0.95;;;;;;;;;;6163838;23;20020;-42
2022/10/14 04:58:48;;;;;;;3.00;1.20;;;;;;;;;;6159370;23;20017;-42
2022/10/14 05:01:17;;;;;;;3.72;1.55;;;;;;;;;;6157452;23;20024;-41
2022/10/14 05:03:43;;;;;;;2.93;1.03;;;;;;;;;;6159034;23;20020;-43
2022/10/14 05:06:10;;;;;;;2.58;0.65;;;;;;;;;;6186133;23;20427;-42
2022/10/14 05:08:36;;;;;;;2.60;0.73;;;;;;;;;;6156415;23;20455;-43
2022/10/14 05:11:03;;;;;;;1.98;0.70;;;;;;;;;;6158328;23;20013;-41
2022/10/14 05:13:31;;;;;;;2.08;0.60;;;;;;;;;;6182331;23;20017;-42
2022/10/14 05:15:57;;;;;;;3.57;1.20;;;;;;;;;;6184420;23;20013;-42
2022/10/14 05:18:24;;;;;;;2.05;0.75;;;;;;;;;;6187926;23;20020;-44
2022/10/14 05:20:50;;;;;;;2.28;0.93;;;;;;;;;;6186690;23;20459;-43
2022/10/14 05:23:17;;;;;;;1.67;0.45;;;;;;;;;;6157128;23;20020;-41
2022/10/14 05:25:43;;;;;;;2.80;1.02;;;;;;;;;;6183609;23;20020;-43
2022/10/14 05:28:10;;;;;;;2.90;1.27;;;;;;;;;;6181892;23;20618;-43
2022/10/14 05:30:38;;;;;;;3.47;1.35;;;;;;;;;;6189078;23;20023;-43
2022/10/14 05:33:04;;;;;;;2.60;0.88;;;;;;;;;;6178829;23;20016;-43
2022/10/14 05:35:31;;;;;;;5.93;1.63;;;;;;;;;;6186573;23;20013;-43
2022/10/14 05:37:57;;;;;;;2.70;0.98;;;;;;;;;;6181680;23;20013;-45
2022/10/14 05:40:24;;;;;;;2.87;1.10;;;;;;;;;;6192722;23;20316;-43
2022/10/14 05:42:51;;;;;;;2.08;0.60;;;;;;;;;;6181986;23;20912;-42
2022/10/14 05:45:18;;;;;;;2.83;1.02;;;;;;;;;;6184960;23;20296;-42
2022/10/14 05:47:46;;;;;;;3.63;1.17;;;;;;;;;;6189156;23;20017;-46
2022/10/14 05:50:13;;;;;;;2.90;0.82;;;;;;;;;;6184947;23;20299;-44
2022/10/14 05:52:39;;;;;;;2.90;1.10;;;;;;;;;;6185911;23;20125;-42
2022/10/14 05:55:06;;;;;;;3.53;1.40;;;;;;;;;;6188273;23;20458;-42
2022/10/14 05:57:33;;;;;;;2.83;1.13;;;;;;;;;;6190192;23;20359;-44
2022/10/14 06:00:01;;;;;;;3.30;1.10;;;;;;;;;;6181814;23;20024;-44
2022/10/14 06:02:27;;;;;;;2.75;0.65;;;;;;;;;;6189001;23;20314;-41
2022/10/14 06:04:55;;;;;;;2.60;0.87;;;;;;;;;;6184245;23;20019;-43
2022/10/14 06:07:22;;;;;;;2.45;0.63;;;;;;;;;;6157772;23;20020;-42
2022/10/14 06:09:48;;;;;;;3.67;1.05;;;;;;;;;;6184684;23;20013;-42
2022/10/14 06:12:15;;;;;;;1.63;0.50;;;;;;;;;;6188221;23;20337;-44
2022/10/14 06:14:42;;;;;;;9.43;1.35;;;;;;;;;;6182233;23;20013;-42
2022/10/14 06:17:08;;;;;;;1.60;0.30;;;;;;;;;;6188657;23;20077;-43
2022/10/14 06:19:35;;;;;;;2.55;0.85;;;;;;;;;;6178846;23;20063;-41
2022/10/14 06:22:03;;;;;;;4.25;1.02;;;;;;;;;;6162536;23;20017;-45
2022/10/14 06:24:29;;;;;;;3.72;0.95;;;;;;;;;;6176435;23;20017;-42
2022/10/14 06:26:57;;;;;;;2.85;1.10;;;;;;;;;;6187226;23;20024;-42
2022/10/14 06:29:25;;;;;;;2.93;0.70;;;;;;;;;;6183501;23;20024;-42
2022/10/14 06:31:51;;;;;;;2.40;0.90;;;;;;;;;;6170583;23;20035;-43
2022/10/14 06:34:21;;;;;;;2.95;1.35;;;;;;;;;;6181098;23;20016;-42
2022/10/14 06:36:48;;;;;;;2.42;0.75;;;;;;;;;;6186126;23;20044;-43
2022/10/14 06:39:16;;;;;;;3.97;1.65;;;;;;;;;;6173286;23;20047;-42
2022/10/14 06:41:44;;;;;;;3.73;1.10;;;;;;;;;;6187843;23;20078;-42
2022/10/14 06:44:11;;;;;;;2.42;0.90;;;;;;;;;;6157584;23;20029;-45
2022/10/14 06:46:38;;;;;;;3.38;1.25;;;;;;;;;;6180571;23;20560;-42
2022/10/14 06:49:05;;;;;;;3.08;0.65;;;;;;;;;;6160192;23;20024;-43
2022/10/14 06:51:31;;;;;;;3.20;0.88;;;;;;;;;;6184031;23;20071;-43
2022/10/14 06:53:58;;;;;;;3.20;1.47;;;;;;;;;;6187740;23;20016;-43
2022/10/14 06:56:26;;;;;;;3.00;1.35;;;;;;;;;;6186117;23;20024;-43
2022/10/14 06:58:53;;;;;;;3.95;1.50;;;;;;;;;;6192955;23;20025;-45
2022/10/14 07:01:20;;;;;;;3.67;1.25;;;;;;;;;;6178923;23;20012;-42
2022/10/14 07:03:47;;;;;;;3.05;1.17;;;;;;;;;;6190843;23;20466;-42
2022/10/14 07:06:13;;;;;;;2.87;1.03;;;;;;;;;;6176284;23;20346;-42
2022/10/14 07:08:40;;;;;;;2.75;0.93;;;;;;;;;;6190514;23;20017;-41
2022/10/14 07:11:06;;;;;;;4.13;1.55;;;;;;;;;;6146402;23;20451;-43
2022/10/14 07:13:34;;;;;;;2.72;1.25;;;;;;;;;;6184741;23;20016;-43
2022/10/14 07:16:02;;;;;;;3.47;0.68;;;;;;;;;;6180753;23;20013;-53
2022/10/14 07:18:28;;;;;;;2.67;0.93;;;;;;;;;;6180888;23;20019;-43
2022/10/14 07:20:55;;;;;;;2.47;0.70;;;;;;;;;;6173758;23;20376;-42
2022/10/14 07:23:21;;;;;;;2.35;0.70;;;;;;;;;;6185197;23;20458;-42
2022/10/14 07:25:48;;;;;;;4.20;1.27;;;;;;;;;;6150704;23;20020;-41
2022/10/14 07:28:14;;;;;;;3.15;1.13;;;;;;;;;;6188001;23;20797;-42
2022/10/14 07:30:42;;;;;;;4.00;1.47;;;;;;;;;;6185887;23;20012;-46
2022/10/14 07:33:09;;;;;;;3.28;1.25;;;;;;;;;;6178726;23;20048;-41
2022/10/14 07:35:37;;;;;;;2.67;0.82;;;;;;;;;;6193200;23;20545;-41
2022/10/14 07:38:04;;;;;;;2.13;0.50;;;;;;;;;;6146088;23;20065;-45
2022/10/14 07:40:30;;;;;;;3.60;1.27;;;;;;;;;;6156183;23;20464;-42
2022/10/14 07:42:57;;;;;;;3.10;1.13;;;;;;;;;;6180511;23;20444;-41
2022/10/14 07:45:23;;;;;;;3.75;0.73;;;;;;;;;;6160321;23;20482;-42
2022/10/14 07:47:51;;;;;;;2.83;0.75;;;;;;;;;;6179741;23;20013;-43
2022/10/14 07:50:18;;;;;;;2.78;0.98;;;;;;;;;;6189910;23;20017;-44
2022/10/14 07:52:45;;;;;;;3.10;0.85;;;;;;;;;;6175978;23;20017;-43
2022/10/14 07:55:12;;;;;;;3.47;0.83;;;;;;;;;;6180281;23;20025;-42
2022/10/14 07:57:39;;;;;;;3.00;1.33;;;;;;;;;;6190811;23;20057;-43
2022/10/14 08:00:06;;;;;;;3.67;0.80;;;;;;;;;;6171082;23;20031;-42
2022/10/14 08:02:33;;;;;;;4.05;1.35;;;;;;;;;;6182866;23;20035;-43
2022/10/14 08:05:01;;;;;;;4.13;1.85;;;;;;;;;;6174897;23;20100;-43
2022/10/14 08:07:28;;;;;;;2.90;0.87;;;;;;;;;;6182004;23;20418;-42
2022/10/14 08:09:55;;;;;;;3.97;1.65;;;;;;;;;;6173558;23;20411;-41
2022/10/14 08:12:22;;;;;;;5.07;2.60;;;;;;;;;;6178287;23;20419;-43
2022/10/14 08:14:48;;;;;;;6.65;2.33;;;;;;;;;;6181320;23;20024;-42
2022/10/14 08:17:15;;;;;;;7.90;2.88;;;;;;;;;;6179959;23;20027;-44
2022/10/14 08:19:41;;;;;;;5.80;2.80;;;;;;;;;;6182767;23;20043;-43
2022/10/14 08:22:09;;;;;;;5.13;2.85;;;;;;;;;;6175415;23;20451;-43
2022/10/14 08:24:36;;;;;;;7.63;2.33;;;;;;;;;;6163831;23;20020;-42
2022/10/14 08:27:04;;;;;;;5.38;1.58;;;;;;;;;;6159102;23;20036;-42
2022/10/14 08:29:30;;;;;;;2.83;1.02;;;;;;;;;;6167785;23;20088;-42
2022/10/14 08:31:57;;;;;;;5.10;1.40;;;;;;;;;;6167035;23;20086;-43
2022/10/14 08:34:23;;;;;;;3.85;1.73;;;;;;;;;;6161257;23;20021;-44
2022/10/14 08:36:50;;;;;;;5.22;2.00;;;;;;;;;;6169163;23;20028;-44
2022/10/14 08:39:19;;;;;;;4.70;1.67;;;;;;;;;;6166568;23;20257;-42
2022/10/14 08:42:01;;;;;;;3.03;1.23;;;;;;;;;;6177004;23;20086;-43
2022/10/14 08:44:35;;;;;;;6.53;2.27;;;;;;;;;;6162875;23;20119;-44
2022/10/14 08:47:03;;;;;;;3.28;1.17;;;;;;;;;;6177443;23;20027;-43
2022/10/14 08:49:32;;;;;;;4.00;0.80;;;;;;;;;;6168849;23;20021;-44
2022/10/14 08:52:00;;;;;;;3.85;1.45;;;;;;;;;;6140526;23;20017;-42
2022/10/14 08:54:35;;;;;;;3.67;1.08;;;;;;;;;;6170683;23;20550;-42
2022/10/14 08:57:03;;;;;;;3.30;1.40;;;;;;;;;;6174958;23;20124;-42
2022/10/14 08:59:30;;;;;;;3.05;0.85;;;;;;;;;;6167457;23;20243;-42
2022/10/14 09:01:59;;;;;;;3.35;1.23;;;;;;;;;;6180566;23;20016;-42
2022/10/14 09:04:25;;;;;;;3.08;1.08;;;;;;;;;;6183663;23;20017;-41
2022/10/14 09:06:53;;;;;;;3.85;1.73;;;;;;;;;;6190494;23;20023;-42
2022/10/14 09:09:22;;;;;;;3.47;1.13;;;;;;;;;;6184167;23;20071;-42
2022/10/14 09:11:51;;;;;;;2.90;1.33;;;;;;;;;;6191217;23;20467;-42
2022/10/14 09:14:19;;;;;;;3.35;1.35;;;;;;;;;;6179725;23;20013;-44
2022/10/14 09:16:47;;;;;;;3.85;1.40;;;;;;;;;;6190770;23;20016;-42
2022/10/14 09:19:18;;;;;;;4.18;1.40;;;;;;;;;;6176865;23;20059;-44
2022/10/14 09:21:46;;;;;;;3.53;1.37;;;;;;;;;;6182273;23;20396;-42
2022/10/14 09:24:13;;;;;;;4.28;1.48;;;;;;;;;;6183383;23;20454;-44
2022/10/14 09:26:41;;;;;;;3.00;1.27;;;;;;;;;;6185840;23;20013;-43
2022/10/14 09:29:18;;;;;;;2.85;0.77;;;;;;;;;;6187007;23;20017;-42
2022/10/14 09:31:45;;;;;;;4.55;1.67;;;;;;;;;;6184768;23;20084;-42
2022/10/14 09:34:17;;;;;;;3.77;1.43;;;;;;;;;;6186975;23;20016;-43
2022/10/14 09:36:45;;;;;;;2.25;0.75;;;;;;;;;;6189007;23;20418;-43
2022/10/14 09:39:12;;;;;;;3.33;1.20;;;;;;;;;;6184119;23;20016;-43
2022/10/14 09:41:38;;;;;;;2.35;0.88;;;;;;;;;;6185483;23;20059;-45
2022/10/14 09:44:20;;;;;;;3.78;1.25;;;;;;;;;;6158899;23;20024;-43
2022/10/14 09:46:48;;;;;;;3.00;1.33;;;;;;;;;;6168074;23;20360;-44
2022/10/14 09:49:16;;;;;;;4.22;1.60;;;;;;;;;;6151474;23;20306;-42
2022/10/14 09:51:43;;;;;;;2.58;1.02;;;;;;;;;;6190840;23;20037;-42
2022/10/14 09:54:17;;;;;;;3.95;1.63;;;;;;;;;;6181104;23;20067;-45
2022/10/14 09:56:46;;;;;;;3.15;1.15;;;;;;;;;;6190018;23;20100;-44
2022/10/14 09:59:15;;;;;;;3.37;1.43;;;;;;;;;;6184818;23;20136;-42
2022/10/14 10:01:49;;;;;;;2.58;0.77;;;;;;;;;;6190214;23;20068;-42
2022/10/14 10:04:27;;;;;;;3.88;1.00;;;;;;;;;;6182246;23;20045;-43
2022/10/14 10:06:55;;;;;;;3.70;1.40;;;;;;;;;;6189339;23;20016;-43
2022/10/14 10:09:21;;;;;;;2.92;1.33;;;;;;;;;;6182995;23;20013;-46
2022/10/14 10:11:48;;;;;;;3.30;1.07;;;;;;;;;;6190840;23;20013;-43
2022/10/14 10:14:16;;;;;;;2.97;1.35;;;;;;;;;;6181218;23;20070;-41
2022/10/14 10:16:44;;;;;;;3.13;1.02;;;;;;;;;;6192432;23;20060;-42
2022/10/14 10:19:28;;;;;;;3.28;1.23;;;;;;;;;;6173136;23;20106;-45
2022/10/14 10:21:55;;;;;;;3.50;0.80;;;;;;;;;;6161670;23;20290;-41
2022/10/14 10:24:23;;;;;;;8.23;0.83;;;;;;;;;;6143197;23;20021;-42
2022/10/14 10:26:50;;;;;;;2.35;0.88;;;;;;;;;;6163429;23;20021;-42
2022/10/14 10:29:23;;;;;;;3.90;1.42;;;;;;;;;;6184546;23;20447;-43
2022/10/14 10:32:07;;;;;;;3.72;1.45;;;;;;;;;;6178962;23;20023;-43
2022/10/14 10:34:43;;;;;;;2.95;1.27;;;;;;;;;;6180844;23;20443;-43
2022/10/14 10:37:16;;;;;;;3.63;0.97;;;;;;;;;;6186403;23;20017;-44
2022/10/14 10:39:46;;;;;;;3.15;1.15;;;;;;;;;;6172152;23;20433;-44
2022/10/14 10:42:18;;;;;;;3.08;0.73;;;;;;;;;;6188948;23;20012;-42
2022/10/14 10:44:59;;;;;;;3.80;1.40;;;;;;;;;;6170520;23;20501;-42
2022/10/14 10:47:31;;;;;;;2.70;0.93;;;;;;;;;;6184954;23;20310;-43
2022/10/14 10:50:08;;;;;;;3.70;0.77;;;;;;;;;;6188932;23;20017;-43
2022/10/14 10:52:42;;;;;;;3.05;1.15;;;;;;;;;;6150171;23;20019;-44
2022/10/14 10:55:13;;;;;;;3.58;1.13;;;;;;;;;;6134199;23;20039;-43
2022/10/14 10:57:45;;;;;;;3.03;1.10;;;;;;;;;;6168317;23;20023;-43
2022/10/14 11:00:15;;;;;;;1.75;0.45;;;;;;;;;;6181210;23;20013;-46
2022/10/14 11:02:54;;;;;;;3.47;0.77;;;;;;;;;;6171149;23;20024;-43
2022/10/14 11:05:27;;;;;;;2.60;0.80;;;;;;;;;;6162200;23;20017;-43
2022/10/14 11:13:38;;;;;;;3.50;0.88;;;;;;;;;;6165295;23;20419;-42
2022/10/14 11:16:07;;;;;;;4.50;0.50;;;;;;;;;;6171501;23;20518;-41
2022/10/14 11:18:46;;;;;;;2.03;0.73;;;;;;;;;;6168747;23;20623;-43
2022/10/14 11:21:20;;;;;;;2.20;0.65;;;;;;;;;;6139617;23;20027;-42
2022/10/14 11:24:00;;;;;;;1.95;0.43;;;;;;;;;;6135472;23;20051;-43
2022/10/14 11:26:36;;;;;;;2.85;0.73;;;;;;;;;;6170601;23;20028;-43
2022/10/14 11:29:17;;;;;;;1.53;0.40;;;;;;;;;;6170452;23;20012;-41
2022/10/14 11:31:50;;;;;;;2.35;0.55;;;;;;;;;;6165190;23;20035;-44
2022/10/14 11:34:26;;;;;;;2.25;0.60;;;;;;;;;;6159678;23;20031;-43
2022/10/14 11:36:59;;;;;;;2.13;0.60;;;;;;;;;;6172569;23;20021;-44
2022/10/14 11:39:32;;;;;;;3.53;1.00;;;;;;;;;;6165028;23;20573;-43
2022/10/14 11:42:10;;;;;;;2.97;0.90;;;;;;;;;;6173784;23;20012;-42
2022/10/14 11:44:37;;;;;;;2.25;0.43;;;;;;;;;;6160657;23;20024;-45
2022/10/14 11:47:11;;;;;;;2.72;0.73;;;;;;;;;;6177941;23;20047;-42
2022/10/14 11:49:45;;;;;;;2.08;0.70;;;;;;;;;;6148581;23;20066;-43
2022/10/14 11:52:15;;;;;;;2.40;0.65;;;;;;;;;;6161518;23;20481;-43
2022/10/14 11:54:44;;;;;;;2.73;0.80;;;;;;;;;;6161881;23;20095;-42
2022/10/14 11:57:12;;;;;;;2.65;0.60;;;;;;;;;;6172810;23;20024;-46
2022/10/14 11:59:44;;;;;;;2.30;0.50;;;;;;;;;;6144394;23;20098;-42
2022/10/14 12:02:14;;;;;;;1.95;0.57;;;;;;;;;;6169391;23;20013;-42
2022/10/14 12:04:45;;;;;;;1.60;0.38;;;;;;;;;;6154606;23;20016;-43
2022/10/14 12:07:16;;;;;;;1.70;0.40;;;;;;;;;;6179489;23;20036;-42
2022/10/14 12:09:47;;;;;;;1.90;0.55;;;;;;;;;;6160571;23;20345;-42
2022/10/14 12:12:20;;;;;;;1.88;0.30;;;;;;;;;;6174133;23;20409;-45
2022/10/14 12:14:54;;;;;;;1.67;0.47;;;;;;;;;;6113605;23;20597;-43
2022/10/14 12:17:25;;;;;;;2.20;0.68;;;;;;;;;;6122051;23;20016;-43
2022/10/14 12:19:54;;;;;;;2.13;0.60;;;;;;;;;;6157929;23;20017;-42
2022/10/14 12:22:22;;;;;;;1.73;0.52;;;;;;;;;;6188492;23;20013;-44
2022/10/14 12:24:50;;;;;;;1.70;0.30;;;;;;;;;;6186982;23;20020;-44
2022/10/14 12:27:19;;;;;;;3.45;0.65;;;;;;;;;;6186953;23;20044;-42
2022/10/14 12:29:46;;;;;;;2.15;0.50;;;;;;;;;;6181227;23;20016;-42
2022/10/14 12:32:23;;;;;;;3.13;0.90;;;;;;;;;;6184996;23;20868;-41
2022/10/14 12:34:52;;;;;;;2.35;0.80;;;;;;;;;;6175341;23;20132;-43
2022/10/14 12:37:49;;;;;;;1.80;0.47;;;;;;;;;;6187357;23;20021;-41
2022/10/14 12:40:29;;;;;;;1.80;0.40;;;;;;;;;;6185197;23;20016;-44
2022/10/14 12:43:17;;;;;;;2.13;0.60;;;;;;;;;;6178713;23;20075;-42
2022/10/14 12:45:51;;;;;;;1.67;0.50;;;;;;;;;;6155926;23;20334;-42
2022/10/14 12:48:20;;;;;;;2.42;0.45;;;;;;;;;;6185665;23;20016;-42
2022/10/14 12:50:48;;;;;;;2.28;0.60;;;;;;;;;;6170006;23;20024;-42
2022/10/14 12:53:21;;;;;;;2.75;0.60;;;;;;;;;;6186276;23;20140;-42
2022/10/14 12:55:50;;;;;;;4.30;0.80;;;;;;;;;;6180939;23;20017;-44
2022/10/14 12:58:22;;;;;;;2.07;0.50;;;;;;;;;;6183817;23;20518;-42
2022/10/14 13:00:53;;;;;;;1.88;0.50;;;;;;;;;;6181987;23;20016;-46
2022/10/14 13:03:20;;;;;;;2.95;1.10;;;;;;;;;;6161939;23;20428;-43
2022/10/14 13:05:47;;;;;;;1.80;0.50;;;;;;;;;;6181270;23;20078;-41
2022/10/14 13:08:26;;;;;;;2.38;0.88;;;;;;;;;;6187046;23;20735;-41
2022/10/14 13:11:07;;;;;;;1.70;0.37;;;;;;;;;;6150617;23;20631;-42
2022/10/14 13:13:50;;;;;;;1.90;0.63;;;;;;;;;;6193001;23;20435;-44
2022/10/14 13:16:35;;;;;;;3.03;1.20;;;;;;;;;;6172024;23;20368;-43
2022/10/14 13:19:02;;;;;;;2.42;0.77;;;;;;;;;;6137165;23;20099;-43
2022/10/14 13:21:43;;;;;;;2.78;0.95;;;;;;;;;;6183509;23;20020;-42
2022/10/14 13:24:14;;;;;;;2.87;1.10;;;;;;;;;;6176555;23;20078;-42
2022/10/14 13:26:44;;;;;;;2.58;0.98;;;;;;;;;;6189579;23;20048;-42
2022/10/14 13:29:16;;;;;;;3.42;1.20;;;;;;;;;;6184132;23;20019;-42
2022/10/14 13:31:46;;;;;;;2.83;1.05;;;;;;;;;;6187708;23;20383;-43
2022/10/14 13:34:17;;;;;;;2.13;0.55;;;;;;;;;;6183912;23;20012;-42
2022/10/14 13:36:50;;;;;;;2.53;0.63;;;;;;;;;;6190612;23;20027;-42
2022/10/14 13:39:17;;;;;;;2.25;0.93;;;;;;;;;;6183119;23;20020;-42
2022/10/14 13:41:44;;;;;;;2.63;0.98;;;;;;;;;;6189318;23;20027;-45
2022/10/14 13:44:12;;;;;;;1.80;0.50;;;;;;;;;;6152222;23;20478;-42
2022/10/14 13:46:42;;;;;;;2.72;0.52;;;;;;;;;;6182235;23;20108;-43
2022/10/14 13:49:14;;;;;;;2.10;0.80;;;;;;;;;;6188291;23;20059;-43
2022/10/14 13:51:44;;;;;;;4.05;1.50;;;;;;;;;;6179346;23;20030;-43
2022/10/14 13:54:21;;;;;;;2.13;0.77;;;;;;;;;;6185516;23;20044;-42
2022/10/14 13:56:58;;;;;;;2.30;0.60;;;;;;;;;;6178891;23;20395;-42
2022/10/14 13:59:25;;;;;;;1.95;0.55;;;;;;;;;;6174072;23;20352;-44
2022/10/14 14:01:55;;;;;;;3.33;0.97;;;;;;;;;;6189514;23;20019;-42
2022/10/14 14:04:23;;;;;;;2.63;0.75;;;;;;;;;;6182261;23;20017;-41
2022/10/14 14:06:50;;;;;;;3.10;1.10;;;;;;;;;;6188681;23;20435;-42
2022/10/14 14:09:19;;;;;;;2.28;0.68;;;;;;;;;;6176916;23;20837;-43
2022/10/14 14:11:47;;;;;;;2.80;1.05;;;;;;;;;;6182458;23;20024;-44
2022/10/14 14:14:18;;;;;;;3.00;1.00;;;;;;;;;;6153824;23;20416;-41
2022/10/14 14:16:48;;;;;;;4.03;0.80;;;;;;;;;;6189418;23;20016;-44
2022/10/14 14:19:20;;;;;;;2.35;0.60;;;;;;;;;;6176502;23;20497;-43
2022/10/14 14:21:47;;;;;;;1.52;0.30;;;;;;;;;;6192415;23;20012;-43
2022/10/14 14:24:18;;;;;;;2.35;0.65;;;;;;;;;;6171362;23;20565;-41
2022/10/14 14:26:44;;;;;;;2.60;0.70;;;;;;;;;;6142753;23;20023;-43
2022/10/14 14:29:14;;;;;;;2.47;0.82;;;;;;;;;;6189574;23;20013;-45
2022/10/14 14:31:42;;;;;;;2.60;0.75;;;;;;;;;;6179934;23;20529;-43
2022/10/14 14:34:12;;;;;;;2.45;0.88;;;;;;;;;;6189423;23;20016;-44
2022/10/14 14:36:40;;;;;;;2.55;0.70;;;;;;;;;;6181895;23;20013;-42
2022/10/14 14:39:17;;;;;;;1.90;0.77;;;;;;;;;;6188392;23;20024;-43
2022/10/14 14:41:49;;;;;;;1.98;0.52;;;;;;;;;;6160702;23;20401;-44
2022/10/14 14:44:16;;;;;;;2.00;0.47;;;;;;;;;;6177248;23;20067;-42
2022/10/14 14:46:44;;;;;;;1.90;0.45;;;;;;;;;;6187695;23;20141;-43
2022/10/14 14:49:13;;;;;;;1.45;0.30;;;;;;;;;;6177154;23;20020;-41
2022/10/14 14:51:41;;;;;;;1.97;0.40;;;;;;;;;;6189842;23;20502;-44
2022/10/14 14:54:16;;;;;;;1.52;0.30;;;;;;;;;;6174161;23;20024;-42
2022/10/14 14:56:45;;;;;;;1.50;0.30;;;;;;;;;;6123001;23;20366;-44
2022/10/14 14:59:19;;;;;;;2.00;0.50;;;;;;;;;;6095299;23;20016;-41